createdAt,value
2018-07-06T00:02:40.116Z,16.17
2018-07-06T00:05:25.683Z,15.98
2018-07-06T00:08:11.637Z,15.99
2018-07-06T00:10:57.153Z,16.09
2018-07-06T00:13:37.474Z,15.93
2018-07-06T00:16:23.379Z,16.00
2018-07-06T00:19:09.259Z,16.11
2018-07-06T00:21:54.739Z,16.10
2018-07-06T00:24:40.938Z,16.04
2018-07-06T00:27:26.725Z,15.91
2018-07-06T00:30:12.822Z,16.05
2018-07-06T00:32:58.362Z,16.14
2018-07-06T00:35:44.196Z,16.07
2018-07-06T00:38:29.696Z,16.20
2018-07-06T00:41:15.367Z,16.34
2018-07-06T00:44:00.588Z,16.30
2018-07-06T00:46:46.143Z,16.24
2018-07-06T00:49:31.449Z,16.36
2018-07-06T00:52:17.030Z,16.54
2018-07-06T00:55:02.393Z,16.67
2018-07-06T00:57:53.565Z,16.73
2018-07-06T01:00:39.067Z,16.72
2018-07-06T01:03:24.833Z,16.63
2018-07-06T01:06:10.286Z,16.66
2018-07-06T01:08:56.307Z,16.69
2018-07-06T01:11:42.003Z,16.79
2018-07-06T01:14:27.793Z,16.83
2018-07-06T01:17:16.556Z,16.82
2018-07-06T01:20:02.307Z,16.81
2018-07-06T01:22:42.085Z,16.68
2018-07-06T01:25:27.966Z,16.87
2018-07-06T01:28:13.359Z,16.93
2018-07-06T01:30:59.445Z,16.97
2018-07-06T01:33:44.972Z,16.97
2018-07-06T01:36:30.927Z,16.92
2018-07-06T01:39:16.199Z,16.93
2018-07-06T01:42:02.080Z,16.81
2018-07-06T01:44:47.492Z,16.89
2018-07-06T01:47:27.934Z,16.90
2018-07-06T01:50:13.408Z,16.77
2018-07-06T01:53:05.346Z,16.98
2018-07-06T01:55:51.004Z,16.81
2018-07-06T01:58:36.949Z,16.97
2018-07-06T02:01:16.763Z,16.85
2018-07-06T02:04:02.664Z,16.94
2018-07-06T02:06:48.500Z,16.80
2018-07-06T02:09:34.223Z,16.92
2018-07-06T02:12:19.903Z,16.95
2018-07-06T02:15:06.529Z,16.81
2018-07-06T02:17:52.141Z,16.61
2018-07-06T02:20:37.908Z,16.76
2018-07-06T02:23:23.350Z,16.85
2018-07-06T02:26:09.372Z,16.71
2018-07-06T02:28:55.051Z,16.79
2018-07-06T02:31:35.282Z,16.75
2018-07-06T02:34:21.000Z,16.80
2018-07-06T02:37:07.056Z,16.70
2018-07-06T02:39:52.675Z,16.64
2018-07-06T02:42:32.833Z,16.66
2018-07-06T02:45:18.539Z,16.52
2018-07-06T02:48:04.416Z,16.57
2018-07-06T02:50:50.264Z,16.63
2018-07-06T02:53:36.307Z,16.68
2018-07-06T02:56:21.979Z,16.54
2018-07-06T02:59:07.830Z,16.63
2018-07-06T03:01:55.465Z,16.67
2018-07-06T03:04:41.704Z,16.62
2018-07-06T03:07:27.394Z,16.69
2018-07-06T03:10:13.168Z,16.76
2018-07-06T03:12:58.752Z,16.67
2018-07-06T03:15:38.947Z,16.46
2018-07-06T03:18:24.666Z,16.60
2018-07-06T03:21:10.699Z,16.53
2018-07-06T03:23:56.609Z,16.57
2018-07-06T03:26:42.803Z,16.65
2018-07-06T03:29:28.568Z,16.70
2018-07-06T03:32:14.641Z,16.57
2018-07-06T03:35:00.278Z,16.69
2018-07-06T03:37:46.065Z,16.60
2018-07-06T03:40:31.724Z,16.61
2018-07-06T03:43:17.820Z,16.54
2018-07-06T03:46:09.479Z,16.49
2018-07-06T03:48:55.340Z,16.53
2018-07-06T03:51:40.819Z,16.68
2018-07-06T03:54:26.812Z,16.66
2018-07-06T03:57:12.514Z,16.73
2018-07-06T03:59:58.591Z,16.73
2018-07-06T04:02:44.391Z,16.69
2018-07-06T04:05:30.276Z,16.59
2018-07-06T04:08:16.032Z,16.60
2018-07-06T04:11:02.059Z,16.48
2018-07-06T04:13:47.546Z,16.54
2018-07-06T04:16:33.496Z,16.54
2018-07-06T04:19:19.403Z,16.44
2018-07-06T04:21:59.773Z,16.60
2018-07-06T04:24:45.617Z,16.65
2018-07-06T04:27:25.862Z,16.50
2018-07-06T04:30:11.608Z,16.56
2018-07-06T04:32:51.777Z,16.60
2018-07-06T04:35:37.356Z,16.67
2018-07-06T04:38:23.148Z,16.59
2018-07-06T04:41:08.921Z,16.53
2018-07-06T04:43:49.193Z,16.60
2018-07-06T04:46:35.147Z,16.45
2018-07-06T04:49:21.174Z,16.59
2018-07-06T04:52:06.868Z,16.66
2018-07-06T04:54:53.000Z,16.54
2018-07-06T04:57:38.703Z,16.52
2018-07-06T05:00:24.619Z,16.50
2018-07-06T05:03:10.327Z,16.41
2018-07-06T05:05:56.451Z,16.45
2018-07-06T05:08:42.088Z,16.53
2018-07-06T05:11:27.889Z,16.55
2018-07-06T05:14:13.458Z,16.63
2018-07-06T05:16:53.782Z,16.64
2018-07-06T05:19:39.253Z,16.50
2018-07-06T05:22:25.112Z,16.43
2018-07-06T05:25:10.817Z,16.51
2018-07-06T05:27:56.792Z,16.34
2018-07-06T05:30:42.246Z,16.40
2018-07-06T05:33:28.118Z,16.21
2018-07-06T05:36:13.804Z,16.41
2018-07-06T05:38:59.835Z,16.31
2018-07-06T05:41:45.439Z,16.26
2018-07-06T05:44:31.081Z,16.22
2018-07-06T05:47:17.108Z,16.22
2018-07-06T05:50:03.091Z,16.19
2018-07-06T05:52:48.781Z,16.17
2018-07-06T05:55:34.883Z,16.09
2018-07-06T05:58:20.443Z,16.22
2018-07-06T06:01:01.799Z,16.25
2018-07-06T06:03:48.037Z,16.29
2018-07-06T06:06:34.116Z,16.49
2018-07-06T06:09:01.037Z,16.44
2018-07-06T06:11:29.880Z,16.59
2018-07-06T06:13:59.077Z,16.50
2018-07-06T06:16:27.875Z,16.56
2018-07-06T06:18:56.637Z,16.62
2018-07-06T06:21:25.747Z,16.65
2018-07-06T06:23:54.387Z,16.78
2018-07-06T06:26:31.620Z,16.92
2018-07-06T06:29:00.631Z,17.09
2018-07-06T06:31:29.952Z,17.00
2018-07-06T06:34:02.401Z,17.10
2018-07-06T06:36:33.041Z,17.11
2018-07-06T06:39:04.041Z,17.00
2018-07-06T06:41:33.315Z,17.32
2018-07-06T06:44:02.224Z,17.53
2018-07-06T06:46:31.418Z,17.54
2018-07-06T06:49:00.385Z,17.58
2018-07-06T06:51:29.301Z,17.36
2018-07-06T06:53:58.965Z,17.36
2018-07-06T06:56:27.904Z,17.22
2018-07-06T06:58:57.268Z,17.27
2018-07-06T07:01:26.455Z,17.14
2018-07-06T07:03:55.645Z,17.40
2018-07-06T07:06:24.760Z,17.59
2018-07-06T07:08:54.160Z,17.72
2018-07-06T07:11:22.992Z,17.59
2018-07-06T07:13:51.881Z,17.46
2018-07-06T07:16:21.135Z,17.55
2018-07-06T07:18:50.064Z,17.71
2018-07-06T07:21:19.056Z,17.68
2018-07-06T07:23:48.158Z,17.57
2018-07-06T07:26:17.077Z,17.51
2018-07-06T07:28:45.970Z,17.28
2018-07-06T07:31:15.424Z,17.28
2018-07-06T07:33:44.385Z,17.30
2018-07-06T07:36:13.198Z,17.22
2018-07-06T07:38:42.611Z,16.78
2018-07-06T07:41:11.388Z,16.67
2018-07-06T07:43:40.235Z,16.99
2018-07-06T07:46:09.378Z,16.94
2018-07-06T07:48:38.318Z,17.27
2018-07-06T07:51:53.820Z,17.41
2018-07-06T07:54:26.793Z,17.09
2018-07-06T07:56:57.283Z,17.11
2018-07-06T07:59:27.920Z,16.76
2018-07-06T08:01:57.641Z,16.72
2018-07-06T08:04:26.583Z,16.74
2018-07-06T08:06:56.198Z,16.92
2018-07-06T08:09:25.747Z,16.84
2018-07-06T08:11:58.088Z,16.60
2018-07-06T08:14:27.461Z,16.56
2018-07-06T08:16:56.309Z,16.77
2018-07-06T08:19:25.166Z,16.86
2018-07-06T08:21:54.043Z,16.80
2018-07-06T08:24:22.816Z,16.84
2018-07-06T08:26:51.749Z,16.66
2018-07-06T08:29:20.663Z,16.81
2018-07-06T08:31:49.433Z,16.83
2018-07-06T08:34:35.498Z,16.97
2018-07-06T08:37:51.242Z,16.84
2018-07-06T08:40:21.557Z,16.73
2018-07-06T08:42:52.410Z,16.80
2018-07-06T08:45:27.949Z,16.96
2018-07-06T08:47:56.589Z,17.00
2018-07-06T08:50:25.459Z,17.05
2018-07-06T08:52:55.344Z,16.73
2018-07-06T08:55:24.534Z,16.67
2018-07-06T08:57:54.754Z,16.94
2018-07-06T09:00:23.650Z,16.91
2018-07-06T09:02:52.647Z,17.03
2018-07-06T09:05:22.549Z,17.14
2018-07-06T09:07:51.193Z,17.34
2018-07-06T09:10:19.999Z,17.06
2018-07-06T09:12:49.753Z,17.18
2018-07-06T09:15:18.516Z,17.66
2018-07-06T09:17:47.297Z,17.58
2018-07-06T09:20:16.691Z,18.16
2018-07-06T09:22:45.285Z,18.56
2018-07-06T09:25:14.080Z,18.65
2018-07-06T09:27:43.195Z,18.28
2018-07-06T09:30:11.970Z,18.55
2018-07-06T09:32:40.802Z,18.33
2018-07-06T09:35:09.896Z,18.22
2018-07-06T09:37:38.673Z,18.18
2018-07-06T09:40:08.047Z,18.45
2018-07-06T09:42:37.377Z,18.08
2018-07-06T09:45:06.228Z,18.55
2018-07-06T09:47:34.976Z,19.62
2018-07-06T09:50:04.079Z,19.56
2018-07-06T09:52:32.702Z,19.17
2018-07-06T09:55:01.737Z,19.04
2018-07-06T09:57:30.851Z,18.70
2018-07-06T09:59:59.643Z,18.92
2018-07-06T10:02:28.386Z,18.73
2018-07-06T10:04:57.466Z,18.82
2018-07-06T10:07:26.240Z,19.21
2018-07-06T10:09:55.508Z,19.02
2018-07-06T10:12:24.688Z,19.13
2018-07-06T10:14:53.453Z,18.87
2018-07-06T10:17:22.220Z,18.65
2018-07-06T10:19:51.335Z,18.84
2018-07-06T10:22:20.172Z,19.29
2018-07-06T10:24:48.977Z,19.63
2018-07-06T10:27:17.972Z,19.44
2018-07-06T10:29:58.787Z,19.14
2018-07-06T10:32:28.928Z,18.99
2018-07-06T10:34:58.480Z,19.26
2018-07-06T10:37:27.749Z,19.52
2018-07-06T10:39:57.035Z,19.78
2018-07-06T10:42:25.739Z,19.71
2018-07-06T10:44:54.610Z,19.76
2018-07-06T10:47:23.813Z,20.30
2018-07-06T10:49:52.676Z,20.43
2018-07-06T10:52:21.469Z,20.54
2018-07-06T10:54:50.483Z,20.67
2018-07-06T10:57:19.149Z,20.51
2018-07-06T10:59:48.830Z,20.13
2018-07-06T11:02:17.789Z,20.35
2018-07-06T11:04:46.584Z,21.13
2018-07-06T11:07:15.426Z,21.17
2018-07-06T11:09:44.668Z,21.39
2018-07-06T11:12:13.464Z,21.48
2018-07-06T11:14:42.253Z,21.53
2018-07-06T11:17:11.179Z,21.07
2018-07-06T11:19:39.810Z,20.87
2018-07-06T11:22:08.696Z,21.03
2018-07-06T11:24:38.057Z,21.15
2018-07-06T11:27:06.656Z,21.37
2018-07-06T11:29:35.490Z,21.35
2018-07-06T11:32:04.707Z,21.68
2018-07-06T11:34:33.575Z,21.48
2018-07-06T11:37:02.391Z,21.31
2018-07-06T11:39:31.480Z,21.65
2018-07-06T11:42:00.298Z,21.99
2018-07-06T11:44:28.915Z,22.20
2018-07-06T11:46:58.161Z,22.02
2018-07-06T11:49:27.008Z,22.08
2018-07-06T11:51:55.796Z,22.26
2018-07-06T11:54:25.238Z,21.72
2018-07-06T11:56:54.012Z,21.57
2018-07-06T11:59:22.843Z,21.60
2018-07-06T12:01:52.435Z,21.93
2018-07-06T12:04:21.383Z,22.00
2018-07-06T12:06:50.079Z,21.77
2018-07-06T12:09:19.208Z,22.11
2018-07-06T12:11:48.071Z,21.53
2018-07-06T12:14:16.861Z,21.72
2018-07-06T12:16:46.326Z,21.95
2018-07-06T12:19:15.074Z,21.64
2018-07-06T12:21:43.882Z,21.72
2018-07-06T12:24:13.051Z,21.97
2018-07-06T12:26:41.819Z,21.91
2018-07-06T12:29:10.637Z,22.05
2018-07-06T12:31:39.753Z,22.53
2018-07-06T12:34:08.543Z,22.11
2018-07-06T12:36:37.674Z,22.41
2018-07-06T12:39:06.982Z,22.50
2018-07-06T12:41:35.636Z,22.25
2018-07-06T12:44:04.587Z,22.20
2018-07-06T12:46:33.550Z,22.48
2018-07-06T12:49:02.755Z,22.36
2018-07-06T12:51:31.367Z,22.33
2018-07-06T12:54:00.455Z,22.24
2018-07-06T12:56:29.286Z,22.46
2018-07-06T12:58:58.140Z,22.30
2018-07-06T13:01:27.055Z,22.15
2018-07-06T13:03:55.865Z,21.97
2018-07-06T13:06:24.887Z,21.84
2018-07-06T13:08:53.850Z,21.84
2018-07-06T13:11:22.647Z,22.13
2018-07-06T13:13:51.447Z,21.90
2018-07-06T13:16:20.280Z,22.11
2018-07-06T13:18:49.139Z,22.16
2018-07-06T13:21:17.844Z,22.27
2018-07-06T13:23:47.079Z,22.71
2018-07-06T13:26:16.012Z,22.55
2018-07-06T13:28:44.857Z,22.42
2018-07-06T13:31:13.699Z,22.38
2018-07-06T13:33:42.471Z,22.10
2018-07-06T13:36:11.170Z,22.53
2018-07-06T13:38:40.344Z,22.12
2018-07-06T13:41:10.767Z,22.44
2018-07-06T13:43:39.595Z,22.29
2018-07-06T13:46:08.235Z,22.35
2018-07-06T13:48:40.420Z,22.76
2018-07-06T13:51:09.257Z,22.68
2018-07-06T13:53:38.068Z,22.70
2018-07-06T13:56:07.059Z,22.80
2018-07-06T13:58:35.995Z,22.67
2018-07-06T14:01:04.900Z,22.86
2018-07-06T14:03:34.177Z,22.67
2018-07-06T14:06:02.988Z,22.76
2018-07-06T14:08:31.794Z,22.47
2018-07-06T14:11:00.751Z,22.15
2018-07-06T14:13:29.613Z,22.90
2018-07-06T14:15:58.938Z,22.40
2018-07-06T14:18:28.144Z,22.54
2018-07-06T14:20:56.944Z,22.49
2018-07-06T14:23:26.038Z,22.56
2018-07-06T14:25:55.431Z,22.86
2018-07-06T14:28:24.279Z,22.62
2018-07-06T14:30:53.419Z,22.45
2018-07-06T14:33:22.504Z,22.30
2018-07-06T14:35:51.385Z,22.48
2018-07-06T14:38:20.109Z,22.26
2018-07-06T14:40:48.988Z,22.26
2018-07-06T14:43:17.771Z,22.24
2018-07-06T14:45:48.827Z,21.84
2018-07-06T14:48:17.610Z,22.20
2018-07-06T14:50:46.420Z,21.89
2018-07-06T14:53:15.844Z,21.94
2018-07-06T14:55:44.626Z,21.98
2018-07-06T14:58:13.419Z,22.16
2018-07-06T15:00:43.017Z,22.47
2018-07-06T15:03:11.962Z,22.30
2018-07-06T15:05:40.832Z,22.72
2018-07-06T15:08:09.978Z,22.40
2018-07-06T15:10:38.801Z,22.52
2018-07-06T15:13:07.623Z,22.33
2018-07-06T15:15:36.456Z,22.15
2018-07-06T15:18:05.448Z,22.08
2018-07-06T15:20:34.296Z,22.28
2018-07-06T15:23:03.460Z,22.36
2018-07-06T15:25:32.272Z,22.44
2018-07-06T15:28:01.055Z,22.19
2018-07-06T15:30:30.319Z,22.33
2018-07-06T15:32:59.123Z,22.31
2018-07-06T15:35:27.923Z,22.23
2018-07-06T15:37:57.096Z,22.49
2018-07-06T15:40:25.895Z,22.01
2018-07-06T15:42:54.836Z,21.85
2018-07-06T15:45:30.021Z,21.99
2018-07-06T15:47:58.851Z,22.33
2018-07-06T15:50:27.455Z,22.48
2018-07-06T15:52:56.596Z,22.11
2018-07-06T15:55:25.379Z,22.46
2018-07-06T15:57:54.191Z,21.99
2018-07-06T16:00:23.376Z,21.85
2018-07-06T16:02:52.212Z,21.75
2018-07-06T16:05:21.081Z,22.29
2018-07-06T16:07:50.038Z,21.92
2018-07-06T16:10:19.205Z,21.77
2018-07-06T16:12:48.029Z,21.67
2018-07-06T16:15:17.335Z,21.14
2018-07-06T16:17:46.164Z,21.50
2018-07-06T16:20:14.767Z,21.60
2018-07-06T16:22:43.911Z,21.84
2018-07-06T16:25:12.704Z,21.96
2018-07-06T16:27:41.477Z,22.00
2018-07-06T16:30:10.588Z,21.32
2018-07-06T16:32:39.416Z,21.58
2018-07-06T16:35:08.228Z,21.44
2018-07-06T16:37:37.428Z,21.39
2018-07-06T16:40:06.327Z,21.44
2018-07-06T16:42:35.074Z,21.39
2018-07-06T16:45:04.346Z,21.05
2018-07-06T16:47:33.513Z,20.99
2018-07-06T16:50:02.348Z,20.90
2018-07-06T16:52:31.423Z,20.70
2018-07-06T16:55:00.300Z,20.53
2018-07-06T16:57:29.205Z,20.31
2018-07-06T16:59:58.411Z,20.52
2018-07-06T17:02:27.198Z,20.22
2018-07-06T17:04:55.983Z,20.27
2018-07-06T17:07:25.157Z,20.35
2018-07-06T17:09:53.941Z,20.01
2018-07-06T17:12:22.780Z,19.72
2018-07-06T17:14:51.868Z,19.66
2018-07-06T17:17:20.639Z,19.48
2018-07-06T17:19:49.297Z,19.17
2018-07-06T17:22:18.459Z,18.90
2018-07-06T17:24:47.563Z,18.58
2018-07-06T17:27:16.338Z,18.78
2018-07-06T17:29:45.529Z,18.79
2018-07-06T17:32:14.412Z,18.88
2018-07-06T17:34:43.244Z,18.95
2018-07-06T17:37:12.202Z,18.87
2018-07-06T17:39:40.991Z,18.76
2018-07-06T17:42:09.889Z,18.53
2018-07-06T17:44:38.869Z,18.45
2018-07-06T17:47:08.042Z,18.36
2018-07-06T17:49:36.980Z,18.36
2018-07-06T17:52:06.274Z,18.51
2018-07-06T17:54:35.052Z,18.59
2018-07-06T17:57:03.782Z,18.47
2018-07-06T17:59:32.663Z,18.60
2018-07-06T18:02:01.459Z,18.63
2018-07-06T18:04:30.253Z,18.49
2018-07-06T18:06:59.120Z,18.56
2018-07-06T18:09:27.963Z,18.37
2018-07-06T18:11:56.859Z,18.40
2018-07-06T18:14:26.102Z,18.22
2018-07-06T18:16:54.978Z,18.20
2018-07-06T18:19:23.871Z,18.20
2018-07-06T18:21:52.959Z,18.12
2018-07-06T18:24:21.761Z,18.07
2018-07-06T18:26:50.543Z,18.07
2018-07-06T18:29:19.656Z,18.01
2018-07-06T18:31:48.467Z,17.77
2018-07-06T18:34:17.354Z,17.58
2018-07-06T18:36:46.535Z,17.43
2018-07-06T18:39:15.496Z,17.34
2018-07-06T18:41:44.300Z,17.16
2018-07-06T18:44:13.414Z,17.20
2018-07-06T18:46:42.263Z,17.20
2018-07-06T18:49:11.065Z,17.15
2018-07-06T18:51:40.296Z,17.03
2018-07-06T18:54:09.063Z,17.04
2018-07-06T18:56:37.844Z,16.88
2018-07-06T18:59:07.179Z,16.84
2018-07-06T19:01:36.896Z,16.77
2018-07-06T19:04:06.076Z,16.84
2018-07-06T19:06:35.181Z,16.76
2018-07-06T19:09:04.787Z,16.58
2018-07-06T19:11:33.751Z,16.50
2018-07-06T19:14:02.987Z,16.47
2018-07-06T19:16:31.743Z,16.38
2018-07-06T19:19:00.488Z,16.38
2018-07-06T19:21:29.560Z,16.38
2018-07-06T19:23:58.390Z,16.24
2018-07-06T19:26:27.173Z,16.31
2018-07-06T19:28:56.238Z,16.13
2018-07-06T19:31:25.014Z,16.04
2018-07-06T19:33:54.181Z,16.03
2018-07-06T19:36:23.314Z,16.11
2018-07-06T19:38:52.124Z,16.07
2018-07-06T19:41:20.924Z,15.99
2018-07-06T19:43:50.100Z,15.86
2018-07-06T19:46:19.099Z,15.88
2018-07-06T19:48:47.936Z,15.87
2018-07-06T19:51:17.178Z,15.87
2018-07-06T19:53:45.935Z,15.78
2018-07-06T19:56:14.708Z,15.86
2018-07-06T19:58:43.658Z,15.75
2018-07-06T20:01:12.301Z,15.71
2018-07-06T20:03:41.223Z,15.71
2018-07-06T20:06:10.439Z,15.59
2018-07-06T20:08:39.336Z,15.60
2018-07-06T20:11:08.232Z,15.58
2018-07-06T20:13:37.493Z,15.54
2018-07-06T20:16:06.317Z,15.43
2018-07-06T20:18:35.432Z,15.50
2018-07-06T20:21:04.609Z,15.44
2018-07-06T20:23:33.394Z,15.57
2018-07-06T20:26:02.240Z,15.53
2018-07-06T20:28:31.211Z,15.28
2018-07-06T20:30:59.823Z,15.33
2018-07-06T20:33:28.592Z,15.43
2018-07-06T20:35:57.686Z,15.40
2018-07-06T20:38:26.539Z,15.40
2018-07-06T20:40:55.308Z,15.34
2018-07-06T20:43:24.473Z,15.09
2018-07-06T20:45:59.288Z,15.26
2018-07-06T20:48:28.179Z,15.26
2018-07-06T20:50:57.092Z,15.28
2018-07-06T20:53:25.880Z,15.23
2018-07-06T20:55:54.934Z,15.17
2018-07-06T20:58:24.063Z,15.06
2018-07-06T21:00:52.916Z,15.07
2018-07-06T21:03:21.732Z,15.02
2018-07-06T21:05:50.652Z,15.05
2018-07-06T21:08:19.271Z,14.88
2018-07-06T21:10:48.371Z,14.87
2018-07-06T21:13:17.385Z,14.90
2018-07-06T21:15:46.167Z,14.86
2018-07-06T21:18:15.062Z,14.87
2018-07-06T21:20:43.831Z,14.73
2018-07-06T21:23:12.599Z,14.73
2018-07-06T21:25:42.267Z,14.58
2018-07-06T21:28:11.100Z,14.50
2018-07-06T21:30:39.956Z,14.65
2018-07-06T21:33:09.127Z,14.69
2018-07-06T21:35:38.208Z,14.50
2018-07-06T21:38:06.880Z,14.51
2018-07-06T21:40:35.828Z,14.51
2018-07-06T21:43:04.623Z,14.50
2018-07-06T21:45:39.639Z,14.49
2018-07-06T21:48:08.627Z,14.36
2018-07-06T21:50:37.440Z,14.38
2018-07-06T21:53:06.718Z,14.28
2018-07-06T21:55:35.520Z,14.23
2018-07-06T21:58:04.336Z,14.31
2018-07-06T22:00:38.109Z,14.27
2018-07-06T22:03:08.134Z,14.37
2018-07-06T22:05:37.572Z,14.28
2018-07-06T22:08:07.360Z,14.18
2018-07-06T22:10:36.761Z,14.23
2018-07-06T22:13:06.291Z,14.29
2018-07-06T22:15:44.058Z,14.37
2018-07-06T22:18:14.387Z,14.28
2018-07-06T22:20:44.558Z,14.28
2018-07-06T22:23:14.111Z,14.17
2018-07-06T22:25:43.114Z,14.13
2018-07-06T22:28:11.927Z,14.08
2018-07-06T22:30:41.100Z,14.10
2018-07-06T22:33:09.990Z,14.11
2018-07-06T22:35:38.796Z,14.15
2018-07-06T22:38:07.980Z,14.11
2018-07-06T22:40:36.749Z,14.13
2018-07-06T22:43:05.614Z,13.93
2018-07-06T22:45:40.895Z,14.07
2018-07-06T22:48:09.664Z,14.15
2018-07-06T22:50:38.431Z,13.98
2018-07-06T22:53:07.672Z,14.09
2018-07-06T22:55:37.443Z,13.99
2018-07-06T22:58:06.305Z,14.02
2018-07-06T23:00:35.284Z,13.95
2018-07-06T23:03:05.359Z,14.00
2018-07-06T23:05:34.185Z,13.96
2018-07-06T23:08:03.612Z,13.91
2018-07-06T23:10:32.475Z,13.92
2018-07-06T23:13:01.404Z,13.77
2018-07-06T23:15:30.143Z,13.80
2018-07-06T23:17:58.927Z,13.86
2018-07-06T23:20:27.631Z,13.65
2018-07-06T23:23:14.360Z,13.69
2018-07-06T23:25:44.269Z,13.71
2018-07-06T23:28:13.247Z,13.66
2018-07-06T23:30:42.465Z,13.73
2018-07-06T23:33:11.778Z,13.62
2018-07-06T23:35:40.678Z,13.63
2018-07-06T23:38:09.942Z,13.61
2018-07-06T23:40:38.704Z,13.63
2018-07-06T23:43:07.617Z,13.55
2018-07-06T23:45:42.795Z,13.56
2018-07-06T23:48:11.976Z,13.52
2018-07-06T23:50:40.745Z,13.35
2018-07-06T23:53:09.743Z,13.41
2018-07-06T23:55:38.524Z,13.32
2018-07-06T23:58:07.294Z,13.45
